Liberty Center, OH

6:17 AM EDT on October 24, 2014 (GMT -0400)
KOHNAPOL2 | Change Station
CLOSE
Current Station
Personal Weather Station
Location: Napoleon, OH
Elevation: 680 ft
Nearby Weather Stations

Elev 680 ft 41.42 °N, 84.12 °W | Updated 3 seconds ago

Partly Cloudy
Partly Cloudy
34.8 °F
Feels Like 35 °F
N
0.0
Wind Variable Wind from ESE
Gusts 0.0 mph

Today
High -- | Low -- °F
--% Chance of Precip.
Yesterday
High -- | Low -- °F
Precip. -- in
7:58 AM 6:41 PM
New Moon, 0% visible
Pressure 30.11 in
Visibility 3.0 miles
Clouds Clear
Windchill 35 °F
Dew Point 35 °F
Humidity 99%
Rainfall 0.00 in
Snow Depth Not available.
UV 0 out of 12
Pollen .40 out of 12
Air Quality Not available.
Flu Activity Sporadic
METAR KTOL 240952Z 00000KT 3SM BR CLR 02/01 A3009 RMK AO2 SLP194 T00170011

More Conditions Fewer Conditions

Pressure 30.11 in
Visibility 3.0 miles
Clouds Clear
Windchill 35 °F
Dew Point 35 °F
Humidity 99%
Rainfall 0.00 in
Snow Depth Not available.
UV 0 out of 12
Pollen .40 out of 12
Air Quality Not available.
Flu Activity Sporadic
METAR KTOL 240952Z 00000KT 3SM BR CLR 02/01 A3009 RMK AO2 SLP194 T00170011

More Conditions Fewer Conditions

10-Day Weather Forecast

Almanac

Astronomy

Oct. 24, 2014 Rise Set
Actual Time 7:58 AM EDT 6:41 PM EDT
Civil Twilight 7:29 AM EDT 7:09 PM EDT
Nautical Twilight 6:57 AM EDT 7:42 PM EDT
Astronomical Twilight 6:25 AM EDT 8:14 PM EDT
Moon 8:36 AM EDT 7:20 PM EDT
Length of Visible Light 11h 40m
Length of Day
10h 43m
Tomorrow will be 2m 34s shorter.
New Moon, 0% of the Moon is Illuminated
Today
New Moon
Oct 30
First Quarter
Nov 6
Full
Nov 14
Last Quarter
Nov 22
New

Today's Extremes

State Highs State Lows

Community

WunderPhotos

Upload Photos

1,764,513 photos uploaded!

WunderBlogs® & News

Nearby

Snow Depth

Station Depth Elevation
No new snow has been reported.

Earthquake Activity

City Distance Mag. Time & Date
No recent earthquake activity has been reported nearby.
Minimum magnitude displayed is 2.5.

Coastal Water Temperatures

Place Temperature
No Stations Reporting

Nearby Weather Stations